createdAt,value
2023-03-17T00:05:14.187Z,8.9
2023-03-17T00:20:14.233Z,8.7
2023-03-17T00:35:14.166Z,8.6
2023-03-17T00:50:14.232Z,8.7
2023-03-17T01:05:14.125Z,8.6
2023-03-17T01:20:14.135Z,8.7
2023-03-17T01:35:14.097Z,8.5
2023-03-17T01:50:14.120Z,8.5
2023-03-17T02:05:14.096Z,8.3
2023-03-17T02:20:14.073Z,8.4
2023-03-17T02:35:14.047Z,8.4
2023-03-17T02:50:14.056Z,8.5
2023-03-17T03:05:14.012Z,8.5
2023-03-17T03:20:14.024Z,8.7
2023-03-17T03:35:13.967Z,8.4
2023-03-17T03:50:13.997Z,8.1
2023-03-17T04:05:13.915Z,7.8
2023-03-17T04:20:13.966Z,8.1
2023-03-17T04:35:13.893Z,8
2023-03-17T04:50:13.948Z,7.7
2023-03-17T05:05:13.846Z,7.2
2023-03-17T05:20:13.878Z,7.1
2023-03-17T05:35:13.851Z,6.8
2023-03-17T05:50:13.862Z,6.4
2023-03-17T06:05:13.814Z,6.4
2023-03-17T06:20:13.832Z,6.8
2023-03-17T06:35:13.777Z,7.5
2023-03-17T06:50:13.783Z,9.3
2023-03-17T07:05:13.757Z,9.9
2023-03-17T07:20:13.769Z,10.4
2023-03-17T07:35:13.703Z,10.8
2023-03-17T07:50:13.710Z,10.3
2023-03-17T08:05:13.715Z,11.1
2023-03-17T08:20:13.684Z,12.5
2023-03-17T08:35:13.623Z,12.1
2023-03-17T08:50:13.636Z,14.1
2023-03-17T09:05:13.575Z,14.3
2023-03-17T09:20:13.597Z,15.1
2023-03-17T09:35:13.522Z,17
2023-03-17T09:50:13.547Z,15.2
2023-03-17T10:05:13.548Z,14.7
2023-03-17T10:20:13.501Z,14.9
2023-03-17T10:35:13.446Z,15.2
2023-03-17T10:50:13.461Z,16.1
2023-03-17T11:05:13.376Z,17.4
2023-03-17T11:20:13.407Z,18
2023-03-17T11:35:13.342Z,18.5
2023-03-17T11:50:13.348Z,18.4
2023-03-17T12:05:13.319Z,18.5
2023-03-17T12:20:13.299Z,18.7
2023-03-17T12:35:13.232Z,19
2023-03-17T12:50:13.364Z,19.3
2023-03-17T13:05:13.186Z,19.2
2023-03-17T13:20:13.191Z,19.3
2023-03-17T13:35:13.121Z,19.4
2023-03-17T13:50:13.145Z,19.5
2023-03-17T14:05:13.088Z,19.6
2023-03-17T14:20:13.091Z,20.1
2023-03-17T14:35:13.033Z,20.1
2023-03-17T14:50:13.040Z,19.4
2023-03-17T15:05:12.980Z,19.2
2023-03-17T15:20:12.998Z,18.7
2023-03-17T15:35:12.940Z,18.1
2023-03-17T15:50:12.933Z,18
2023-03-17T16:05:12.879Z,17.9
2023-03-17T16:20:12.870Z,17.5
2023-03-17T16:35:12.822Z,17
2023-03-17T16:50:12.844Z,16.9
2023-03-17T17:05:12.784Z,16.8
2023-03-17T17:20:12.789Z,16.6
2023-03-17T17:35:12.725Z,16.6
2023-03-17T17:50:12.738Z,16.6
2023-03-17T18:05:12.694Z,16
2023-03-17T18:20:12.692Z,15.5
2023-03-17T18:35:12.617Z,15.1
2023-03-17T18:50:12.642Z,14.7
2023-03-17T19:05:12.573Z,14.3
2023-03-17T19:20:12.595Z,14.4
2023-03-17T19:35:12.528Z,13.8
2023-03-17T19:50:12.544Z,13.6
2023-03-17T20:05:12.507Z,13.3
2023-03-17T20:20:12.524Z,13
2023-03-17T20:35:12.449Z,12.8
2023-03-17T20:50:12.449Z,12.8
2023-03-17T21:05:12.417Z,12.7
2023-03-17T21:20:12.442Z,12.6
2023-03-17T21:35:12.350Z,12.4
2023-03-17T21:50:12.389Z,12.2
2023-03-17T22:05:12.341Z,12.2
2023-03-17T22:20:12.348Z,12
2023-03-17T22:35:12.298Z,11.8
2023-03-17T22:50:12.309Z,11.7
2023-03-17T23:05:12.258Z,11.4
2023-03-17T23:20:12.314Z,11.3
2023-03-17T23:35:12.215Z,11.1
2023-03-17T23:50:12.210Z,10.9
